createdAt,value
2018-04-23T00:00:27.552Z,95439.68
2018-04-23T00:02:56.601Z,95437.84
2018-04-23T00:05:29.870Z,95439.74
2018-04-23T00:08:02.581Z,95438.02
2018-04-23T00:10:34.999Z,95435.11
2018-04-23T00:13:06.960Z,95435.69
2018-04-23T00:15:39.490Z,95435.76
2018-04-23T00:18:08.524Z,95439.47
2018-04-23T00:20:43.441Z,95441.67
2018-04-23T00:23:15.590Z,95436.42
2018-04-23T00:25:49.234Z,95435.11
2018-04-23T00:28:21.231Z,95437.12
2018-04-23T00:30:55.053Z,95438.31
2018-04-23T00:33:29.648Z,95435.47
2018-04-23T00:36:02.300Z,95434.17
2018-04-23T00:38:35.551Z,95438.19
2018-04-23T00:41:04.605Z,95438.52
2018-04-23T00:43:37.688Z,95436.37
2018-04-23T00:46:10.485Z,95435.57
2018-04-23T00:48:45.131Z,95432.92
2018-04-23T00:51:17.364Z,95436.28
2018-04-23T00:56:26.986Z,95435.39
2018-04-23T00:58:59.191Z,95440.03
2018-04-23T01:01:33.289Z,95443.33
2018-04-23T01:04:05.673Z,95441.89
2018-04-23T01:06:37.891Z,95438.78
2018-04-23T01:09:10.106Z,95443.59
2018-04-23T01:11:42.828Z,95442.50
2018-04-23T01:14:14.928Z,95443.33
2018-04-23T01:16:46.526Z,95444.12
2018-04-23T01:19:19.673Z,95450.75
2018-04-23T01:21:52.296Z,95452.58
2018-04-23T01:24:23.983Z,95449.61
2018-04-23T01:26:55.538Z,95450.25
2018-04-23T01:29:28.500Z,95447.86
2018-04-23T01:32:01.273Z,95448.62
2018-04-23T01:34:31.881Z,95449.39
2018-04-23T01:37:04.848Z,95448.57
2018-04-23T01:42:09.847Z,95445.59
2018-04-23T01:44:42.553Z,95441.60
2018-04-23T01:47:16.285Z,95444.76
2018-04-23T01:49:49.334Z,95445.20
2018-04-23T01:54:57.682Z,95448.89
2018-04-23T01:57:30.418Z,95448.49
2018-04-23T02:00:02.743Z,95451.52
2018-04-23T02:02:37.981Z,95454.59
2018-04-23T02:05:07.023Z,95457.64
2018-04-23T02:07:36.594Z,95456.05
2018-04-23T02:10:05.658Z,95455.42
2018-04-23T02:12:36.473Z,95456.22
2018-04-23T02:15:06.444Z,95464.83
2018-04-23T02:17:36.413Z,95462.27
2018-04-23T02:20:05.480Z,95463.92
2018-04-23T02:22:35.157Z,95463.36
2018-04-23T02:25:04.243Z,95464.55
2018-04-23T02:27:33.645Z,95461.93
2018-04-23T02:30:02.808Z,95463.38
2018-04-23T02:32:33.870Z,95465.63
2018-04-23T02:35:03.260Z,95464.84
2018-04-23T02:40:09.026Z,95466.06
2018-04-23T02:42:39.444Z,95469.21
2018-04-23T02:45:09.466Z,95463.66
2018-04-23T02:47:50.272Z,95462.62
2018-04-23T02:50:20.266Z,95465.91
2018-04-23T02:55:25.876Z,95470.36
2018-04-23T02:57:55.004Z,95472.05
2018-04-23T03:00:24.451Z,95468.91
2018-04-23T03:02:53.510Z,95469.07
2018-04-23T03:05:23.658Z,95470.47
2018-04-23T03:07:52.706Z,95471.66
2018-04-23T03:10:22.074Z,95473.59
2018-04-23T03:12:51.122Z,95473.40
2018-04-23T03:15:20.178Z,95477.98
2018-04-23T03:17:50.304Z,95477.47
2018-04-23T03:20:19.358Z,95479.59
2018-04-23T03:22:48.426Z,95481.80
2018-04-23T03:25:17.491Z,95481.97
2018-04-23T03:30:36.840Z,95489.27
2018-04-23T03:33:05.904Z,95489.63
2018-04-23T03:35:34.971Z,95491.44
2018-04-23T03:38:04.834Z,95491.67
2018-04-23T03:40:33.892Z,95493.55
2018-04-23T03:43:03.602Z,95492.64
2018-04-23T03:48:08.369Z,95490.45
2018-04-23T03:50:37.455Z,95484.95
2018-04-23T03:53:06.520Z,95480.94
2018-04-23T03:55:35.586Z,95482.78
2018-04-23T03:58:04.678Z,95483.69
2018-04-23T04:00:35.278Z,95481.31
2018-04-23T04:03:05.630Z,95487.70
2018-04-23T04:08:10.377Z,95480.55
2018-04-23T04:10:39.810Z,95482.07
2018-04-23T04:13:26.754Z,95480.32
2018-04-23T04:16:14.876Z,95482.89
2018-04-23T04:18:46.768Z,95485.61
2018-04-23T04:23:51.669Z,95483.48
2018-04-23T04:26:21.634Z,95488.25
2018-04-23T04:28:50.717Z,95490.69
2018-04-23T04:31:19.762Z,95488.73
2018-04-23T04:33:48.838Z,95490.16
2018-04-23T04:38:54.406Z,95480.31
2018-04-23T04:44:01.969Z,95485.51
2018-04-23T04:49:09.437Z,95492.86
2018-04-23T04:51:38.511Z,95494.48
2018-04-23T04:54:16.622Z,95492.14
2018-04-23T04:56:46.650Z,95499.19
2018-04-23T05:01:52.279Z,95499.86
2018-04-23T05:04:21.336Z,95499.59
2018-04-23T05:06:51.165Z,95499.69
2018-04-23T05:09:20.246Z,95503.21
2018-04-23T05:11:49.341Z,95503.36
2018-04-23T05:14:18.393Z,95500.49
2018-04-23T05:16:47.455Z,95501.37
2018-04-23T05:21:53.544Z,95499.09
2018-04-23T05:24:23.900Z,95501.28
2018-04-23T05:26:53.568Z,95503.33
2018-04-23T05:31:58.833Z,95505.92
2018-04-23T05:34:28.096Z,95507.17
2018-04-23T05:36:57.169Z,95510.30
2018-04-23T05:39:26.785Z,95513.80
2018-04-23T05:41:55.867Z,95509.38
2018-04-23T05:44:25.240Z,95514.39
2018-04-23T05:46:54.281Z,95512.84
2018-04-23T05:49:23.898Z,95513.63
2018-04-23T05:51:52.940Z,95507.08
2018-04-23T05:54:22.235Z,95503.84
2018-04-23T05:56:51.464Z,95498.97
2018-04-23T05:59:21.149Z,95499.09
2018-04-23T06:01:51.030Z,95497.05
2018-04-23T06:04:20.087Z,95495.72
2018-04-23T06:09:25.583Z,95491.50
2018-04-23T06:11:54.934Z,95496.34
2018-04-23T06:14:24.070Z,95498.20
2018-04-23T06:19:29.541Z,95499.04
2018-04-23T06:22:00.622Z,95496.52
2018-04-23T06:24:32.089Z,95497.59
2018-04-23T06:27:04.292Z,95493.62
2018-04-23T06:29:36.917Z,95492.06
2018-04-23T06:32:09.670Z,95490.38
2018-04-23T06:34:41.064Z,95489.98
2018-04-23T06:37:13.913Z,95488.45
2018-04-23T06:39:46.603Z,95482.72
2018-04-23T06:42:17.955Z,95479.83
2018-04-23T06:44:50.601Z,95478.34
2018-04-23T06:47:22.376Z,95477.03
2018-04-23T06:49:55.137Z,95470.88
2018-04-23T06:52:27.680Z,95465.64
2018-04-23T06:54:59.876Z,95455.20
2018-04-23T06:57:33.692Z,95450.38
2018-04-23T07:00:05.220Z,95464.78
2018-04-23T07:02:37.921Z,95471.98
2018-04-23T07:05:11.003Z,95477.05
2018-04-23T07:07:43.123Z,95478.60
2018-04-23T07:10:14.881Z,95485.11
2018-04-23T07:15:24.795Z,95500.27
2018-04-23T07:17:57.507Z,95504.86
2018-04-23T07:20:30.072Z,95505.98
2018-04-23T07:23:03.421Z,95505.98
2018-04-23T07:28:12.789Z,95509.20
2018-04-23T07:30:44.119Z,95508.62
2018-04-23T07:33:15.883Z,95510.28
2018-04-23T07:38:24.775Z,95505.63
2018-04-23T07:40:57.580Z,95510.59
2018-04-23T07:43:34.449Z,95506.95
2018-04-23T07:46:07.222Z,95509.66
2018-04-23T07:48:39.927Z,95511.16
2018-04-23T07:51:12.371Z,95511.34
2018-04-23T07:53:45.027Z,95508.61
2018-04-23T07:56:18.093Z,95504.73
2018-04-23T08:01:27.297Z,95504.32
2018-04-23T08:03:59.768Z,95506.36
2018-04-23T08:06:32.437Z,95504.69
2018-04-23T08:09:06.288Z,95502.45
2018-04-23T08:11:39.414Z,95495.42
2018-04-23T08:14:11.584Z,95498.06
2018-04-23T08:16:45.218Z,95498.48
2018-04-23T08:19:18.164Z,95496.35
2018-04-23T08:21:52.556Z,95496.07
2018-04-23T08:24:24.467Z,95498.53
2018-04-23T08:26:59.723Z,95492.52
2018-04-23T08:29:32.123Z,95492.36
2018-04-23T08:32:04.666Z,95492.61
2018-04-23T08:34:37.027Z,95492.98
2018-04-23T08:37:08.189Z,95494.66
2018-04-23T08:39:40.510Z,95502.98
2018-04-23T08:42:12.011Z,95496.24
2018-04-23T08:44:44.988Z,95495.62
2018-04-23T08:47:18.862Z,95491.99
2018-04-23T08:49:53.572Z,95498.02
2018-04-23T08:52:26.277Z,95496.66
2018-04-23T08:54:58.358Z,95502.48
2018-04-23T09:00:07.048Z,95502.01
2018-04-23T09:02:39.765Z,95500.33
2018-04-23T09:05:11.596Z,95495.88
2018-04-23T09:10:22.846Z,95506.59
2018-04-23T09:12:55.444Z,95481.30
2018-04-23T09:15:28.449Z,95503.02
2018-04-23T09:18:01.012Z,95499.12
2018-04-23T09:20:32.640Z,95502.59
2018-04-23T09:23:04.435Z,95501.44
2018-04-23T09:25:37.207Z,95508.02
2018-04-23T09:28:09.869Z,95504.10
2018-04-23T09:30:42.767Z,95502.03
2018-04-23T09:33:16.238Z,95494.10
2018-04-23T09:35:49.201Z,95499.30
2018-04-23T09:38:19.008Z,95494.80
2018-04-23T09:40:48.062Z,95504.02
2018-04-23T09:43:18.153Z,95503.30
2018-04-23T09:45:47.230Z,95502.02
2018-04-23T09:48:17.050Z,95500.80
2018-04-23T09:50:57.078Z,95510.94
2018-04-23T09:53:27.070Z,95506.64
2018-04-23T09:55:56.122Z,95510.75
2018-04-23T09:58:25.941Z,95515.41
2018-04-23T10:00:55.028Z,95517.91
2018-04-23T10:03:26.093Z,95520.66
2018-04-23T10:08:30.959Z,95522.59
2018-04-23T10:11:00.019Z,95525.84
2018-04-23T10:13:29.777Z,95517.05
2018-04-23T10:15:58.834Z,95527.31
2018-04-23T10:18:28.809Z,95530.70
2018-04-23T10:20:57.893Z,95522.61
2018-04-23T10:26:02.888Z,95515.70
2018-04-23T10:28:31.965Z,95519.05
2018-04-23T10:31:01.624Z,95514.77
2018-04-23T10:33:30.667Z,95510.73
2018-04-23T10:35:59.726Z,95511.61
2018-04-23T10:41:04.623Z,95509.55
2018-04-23T10:43:33.690Z,95505.16
2018-04-23T10:46:03.266Z,95502.06
2018-04-23T10:48:32.323Z,95502.29
2018-04-23T10:51:01.513Z,95495.84
2018-04-23T10:53:36.952Z,95495.84
2018-04-23T10:56:05.971Z,95492.30
2018-04-23T10:58:35.690Z,95491.30
2018-04-23T11:01:04.762Z,95488.80
2018-04-23T11:03:34.770Z,95484.64
2018-04-23T11:06:03.815Z,95482.55
2018-04-23T11:11:10.161Z,95476.56
2018-04-23T11:13:39.851Z,95476.00
2018-04-23T11:16:10.810Z,95476.73
2018-04-23T11:18:39.860Z,95468.11
2018-04-23T11:21:09.839Z,95469.93
2018-04-23T11:23:39.530Z,95462.79
2018-04-23T11:26:08.589Z,95466.02
2018-04-23T11:28:38.363Z,95456.48
2018-04-23T11:31:07.409Z,95453.32
2018-04-23T11:33:37.383Z,95451.57
2018-04-23T11:36:06.425Z,95454.73
2018-04-23T11:38:35.497Z,95463.36
2018-04-23T11:41:05.134Z,95452.89
2018-04-23T11:43:34.196Z,95452.17
2018-04-23T11:46:04.003Z,95450.09
2018-04-23T11:48:33.050Z,95452.09
2018-04-23T11:51:03.783Z,95445.48
2018-04-23T11:53:32.845Z,95448.81
2018-04-23T11:56:11.851Z,95435.35
2018-04-23T12:01:17.750Z,95433.84
2018-04-23T12:03:46.796Z,95425.63
2018-04-23T12:06:16.586Z,95423.23
2018-04-23T12:08:45.653Z,95420.91
2018-04-23T12:11:15.276Z,95417.16
2018-04-23T12:13:44.373Z,95421.69
2018-04-23T12:16:14.162Z,95414.74
2018-04-23T12:18:43.453Z,95407.67
2018-04-23T12:21:12.512Z,95404.04
2018-04-23T12:26:17.525Z,95410.42
2018-04-23T12:28:46.610Z,95403.44
2018-04-23T12:31:15.668Z,95404.95
2018-04-23T12:36:21.876Z,95394.23
2018-04-23T12:38:51.048Z,95394.05
2018-04-23T12:41:20.102Z,95402.69
2018-04-23T12:43:49.437Z,95401.50
2018-04-23T12:46:19.548Z,95397.55
2018-04-23T12:51:24.429Z,95398.53
2018-04-23T12:53:54.354Z,95392.25
2018-04-23T12:58:59.347Z,95394.02
2018-04-23T13:01:28.533Z,95390.19
2018-04-23T13:03:57.591Z,95391.03
2018-04-23T13:06:27.271Z,95384.22
2018-04-23T13:08:56.327Z,95384.95
2018-04-23T13:14:02.180Z,95385.88
2018-04-23T13:16:31.250Z,95382.77
2018-04-23T13:19:00.275Z,95390.56
2018-04-23T13:21:30.234Z,95388.58
2018-04-23T13:23:59.314Z,95393.72
2018-04-23T13:26:28.377Z,95393.47
2018-04-23T13:28:58.011Z,95394.81
2018-04-23T13:31:27.083Z,95399.80
2018-04-23T13:33:56.127Z,95394.37
2018-04-23T13:39:00.975Z,95404.35
2018-04-23T13:41:31.242Z,95406.18
2018-04-23T13:44:00.281Z,95401.64
2018-04-23T13:46:29.710Z,95401.41
2018-04-23T13:48:58.781Z,95400.71
2018-04-23T13:51:28.041Z,95409.31
2018-04-23T13:56:37.095Z,95420.88
2018-04-23T13:59:10.257Z,95426.38
2018-04-23T14:01:46.036Z,95432.05
2018-04-23T14:04:20.295Z,95431.34
2018-04-23T14:09:30.002Z,95438.47
2018-04-23T14:12:02.523Z,95435.37
2018-04-23T14:14:35.711Z,95440.80
2018-04-23T14:17:08.503Z,95437.30
2018-04-23T14:19:41.306Z,95434.15
2018-04-23T14:22:14.039Z,95439.36
2018-04-23T14:24:47.210Z,95448.45
2018-04-23T14:29:58.827Z,95464.72
2018-04-23T14:32:32.331Z,95463.94
2018-04-23T14:35:04.990Z,95477.91
2018-04-23T14:37:38.386Z,95480.66
2018-04-23T14:40:10.529Z,95485.36
2018-04-23T14:42:43.611Z,95484.92
2018-04-23T14:45:16.672Z,95497.41
2018-04-23T14:53:02.805Z,95507.69
2018-04-23T14:55:36.081Z,95521.20
2018-04-23T14:58:08.654Z,95528.48
2018-04-23T15:03:18.716Z,95530.78
2018-04-23T15:05:53.629Z,95515.02
2018-04-23T15:08:28.027Z,95501.14
2018-04-23T15:13:32.778Z,95476.78
2018-04-23T15:16:02.275Z,95460.09
2018-04-23T15:21:07.137Z,95452.14
2018-04-23T15:26:16.874Z,95469.45
2018-04-23T15:28:45.936Z,95468.11
2018-04-23T15:31:15.617Z,95461.67
2018-04-23T15:33:44.637Z,95463.86
2018-04-23T15:36:13.698Z,95467.98
2018-04-23T15:38:43.551Z,95460.59
2018-04-23T15:41:12.606Z,95458.50
2018-04-23T15:43:42.882Z,95449.70
2018-04-23T15:46:11.930Z,95446.04
2018-04-23T15:48:42.028Z,95448.34
2018-04-23T15:51:11.303Z,95456.02
2018-04-23T15:53:41.356Z,95460.86
2018-04-23T15:56:10.419Z,95463.31
2018-04-23T15:58:39.748Z,95461.16
2018-04-23T16:01:09.416Z,95465.84
2018-04-23T16:03:38.447Z,95466.00
2018-04-23T16:06:07.807Z,95467.53
2018-04-23T16:08:36.842Z,95475.78
2018-04-23T16:11:08.394Z,95474.89
2018-04-23T16:13:37.458Z,95478.49
2018-04-23T16:16:07.226Z,95481.94
2018-04-23T16:18:36.293Z,95492.16
2018-04-23T16:21:05.574Z,95493.98
2018-04-23T16:23:34.631Z,95490.67
2018-04-23T16:26:03.678Z,95492.06
2018-04-23T16:28:32.758Z,95488.82
2018-04-23T16:31:01.803Z,95489.41
2018-04-23T16:33:35.516Z,95489.89
2018-04-23T16:36:04.577Z,95489.77
2018-04-23T16:38:34.669Z,95490.63
2018-04-23T16:41:03.720Z,95489.97
2018-04-23T16:46:08.755Z,95499.81
2018-04-23T16:48:37.820Z,95498.70
2018-04-23T16:51:07.565Z,95494.89
2018-04-23T16:53:36.906Z,95494.67
2018-04-23T16:56:05.962Z,95491.44
2018-04-23T16:58:35.763Z,95492.09
2018-04-23T17:01:04.873Z,95481.05
2018-04-23T17:03:34.486Z,95474.28
2018-04-23T17:06:03.540Z,95480.02
2018-04-23T17:08:33.414Z,95480.45
2018-04-23T17:11:10.297Z,95484.11
2018-04-23T17:16:15.710Z,95490.59
2018-04-23T17:18:44.774Z,95494.61
2018-04-23T17:21:13.823Z,95492.49
2018-04-23T17:23:42.890Z,95497.23
2018-04-23T17:26:12.242Z,95504.71
2018-04-23T17:33:53.811Z,95507.73
2018-04-23T17:36:23.616Z,95509.74
2018-04-23T17:38:52.678Z,95516.09
2018-04-23T17:41:23.252Z,95522.61
2018-04-23T17:43:52.293Z,95523.45
2018-04-23T17:46:21.370Z,95528.41
2018-04-23T17:48:50.690Z,95527.38
2018-04-23T17:51:19.823Z,95534.05
2018-04-23T17:56:24.673Z,95549.37
2018-04-23T17:58:53.820Z,95556.00
2018-04-23T18:01:23.783Z,95559.24
2018-04-23T18:03:52.825Z,95563.49
2018-04-23T18:06:23.361Z,95569.89
2018-04-23T18:08:55.271Z,95574.89
2018-04-23T18:11:25.261Z,95577.28
2018-04-23T18:14:04.622Z,95581.37
2018-04-23T18:16:33.679Z,95583.94
2018-04-23T18:19:02.772Z,95583.47
2018-04-23T18:21:32.348Z,95583.13
2018-04-23T18:24:01.782Z,95587.34
2018-04-23T18:26:33.720Z,95585.07
2018-04-23T18:29:03.836Z,95592.78
2018-04-23T18:31:34.206Z,95596.91
2018-04-23T18:34:03.266Z,95599.62
2018-04-23T18:36:33.945Z,95600.05
2018-04-23T18:39:05.375Z,95605.34
2018-04-23T18:41:40.504Z,95611.53
2018-04-23T18:44:10.507Z,95614.89
2018-04-23T18:46:39.863Z,95619.55
2018-04-23T18:49:08.910Z,95620.05
2018-04-23T18:51:40.811Z,95621.61
2018-04-23T18:54:10.415Z,95627.13
2018-04-23T18:56:39.484Z,95631.17
2018-04-23T18:59:08.534Z,95634.24
2018-04-23T19:01:40.017Z,95641.18
2018-04-23T19:04:10.046Z,95644.47
2018-04-23T19:06:39.845Z,95649.53
2018-04-23T19:09:08.888Z,95652.59
2018-04-23T19:14:14.471Z,95657.30
2018-04-23T19:16:44.944Z,95662.12
2018-04-23T19:19:19.800Z,95666.22
2018-04-23T19:21:50.092Z,95671.83
2018-04-23T19:24:23.482Z,95676.50
2018-04-23T19:26:58.826Z,95677.19
2018-04-23T19:29:32.858Z,95678.11
2018-04-23T19:32:05.620Z,95677.41
2018-04-23T19:34:41.227Z,95684.45
2018-04-23T19:37:13.837Z,95677.20
2018-04-23T19:39:46.492Z,95675.17
2018-04-23T19:42:18.462Z,95671.20
2018-04-23T19:44:49.328Z,95675.25
2018-04-23T19:47:25.316Z,95669.81
2018-04-23T19:49:58.782Z,95673.69
2018-04-23T19:52:31.806Z,95674.38
2018-04-23T19:55:05.711Z,95679.75
2018-04-23T19:57:37.771Z,95681.61
2018-04-23T20:00:09.258Z,95683.47
2018-04-23T20:02:42.423Z,95689.85
2018-04-23T20:05:13.698Z,95684.45
2018-04-23T20:07:44.704Z,95690.27
2018-04-23T20:12:52.138Z,95695.78
2018-04-23T20:15:28.484Z,95703.75
2018-04-23T20:18:01.081Z,95711.73
2018-04-23T20:20:33.090Z,95715.80
2018-04-23T20:23:16.063Z,95722.66
2018-04-23T20:25:48.607Z,95730.13
2018-04-23T20:31:05.718Z,95741.26
2018-04-23T20:33:40.298Z,95745.67
2018-04-23T20:36:15.734Z,95744.25
2018-04-23T20:38:48.111Z,95745.71
2018-04-23T20:43:56.492Z,95744.69
2018-04-23T20:46:28.508Z,95749.79
2018-04-23T20:49:00.639Z,95748.45
2018-04-23T20:51:32.076Z,95749.65
2018-04-23T20:54:02.991Z,95747.55
2018-04-23T20:56:34.595Z,95750.00
2018-04-23T20:59:06.870Z,95752.16
2018-04-23T21:01:38.542Z,95753.38
2018-04-23T21:04:10.363Z,95752.77
2018-04-23T21:06:42.459Z,95754.70
2018-04-23T21:09:14.156Z,95749.25
2018-04-23T21:11:46.114Z,95747.31
2018-04-23T21:14:19.661Z,95751.27
2018-04-23T21:16:50.801Z,95745.42
2018-04-23T21:19:23.878Z,95738.11
2018-04-23T21:21:56.287Z,95736.09
2018-04-23T21:24:29.173Z,95747.64
2018-04-23T21:32:14.443Z,95750.23
2018-04-23T21:34:46.674Z,95748.13
2018-04-23T21:37:18.042Z,95745.28
2018-04-23T21:39:50.210Z,95745.03
2018-04-23T21:42:21.333Z,95741.89
2018-04-23T21:44:51.611Z,95741.82
2018-04-23T21:47:59.411Z,95744.05
2018-04-23T21:50:31.697Z,95739.20
2018-04-23T21:58:20.103Z,95738.99
2018-04-23T22:00:51.757Z,95739.09
2018-04-23T22:03:24.663Z,95739.95
2018-04-23T22:05:57.734Z,95740.37
2018-04-23T22:08:30.354Z,95735.93
2018-04-23T22:11:01.156Z,95744.23
2018-04-23T22:13:33.425Z,95738.71
2018-04-23T22:16:05.242Z,95745.72
2018-04-23T22:18:38.159Z,95746.98
2018-04-23T22:23:47.506Z,95747.66
2018-04-23T22:26:19.449Z,95746.56
2018-04-23T22:28:52.739Z,95750.92
2018-04-23T22:31:25.012Z,95753.80
2018-04-23T22:33:57.409Z,95758.31
2018-04-23T22:36:28.889Z,95759.15
2018-04-23T22:39:02.987Z,95756.73
2018-04-23T22:41:32.016Z,95758.72
2018-04-23T22:44:01.435Z,95757.43
2018-04-23T22:46:30.478Z,95751.19
2018-04-23T22:48:59.533Z,95748.75
2018-04-23T22:51:28.602Z,95749.56
2018-04-23T22:56:37.456Z,95748.82
2018-04-23T22:59:10.732Z,95749.63
2018-04-23T23:01:45.068Z,95742.72
2018-04-23T23:04:17.571Z,95748.53
2018-04-23T23:06:50.433Z,95745.39
2018-04-23T23:09:23.339Z,95746.28
2018-04-23T23:11:56.057Z,95743.59
2018-04-23T23:14:27.528Z,95743.61
2018-04-23T23:17:00.616Z,95751.06
2018-04-23T23:19:33.299Z,95748.42
2018-04-23T23:22:05.428Z,95749.92
2018-04-23T23:24:38.815Z,95751.54
2018-04-23T23:32:27.328Z,95761.59
2018-04-23T23:34:59.355Z,95762.33
2018-04-23T23:37:30.804Z,95759.62
2018-04-23T23:40:04.039Z,95762.02
2018-04-23T23:42:36.525Z,95757.36
2018-04-23T23:45:10.054Z,95749.53
2018-04-23T23:47:42.446Z,95748.73
2018-04-23T23:50:12.649Z,95749.23
2018-04-23T23:52:45.430Z,95753.92
2018-04-23T23:55:19.230Z,95753.59
2018-04-23T23:57:52.345Z,95751.55
